Time;durP1;ratioP1;P1;durP2;ratioP2;P2;SDS_P1;SDS_P2;PMS_P1;PMS_P2;Temp;Humidity;BMP_temperature;BMP_pressure;BME280_temperature;BME280_humidity;BME280_pressure;Samples;Min_cycle;Max_cycle;Signal;HPM_P1;HPM_P2
2023/05/22 00:00:08;;;;;;;5.75;5.18;;;;;;;;;;5013427;28;20112;-65
2023/05/22 00:02:37;;;;;;;5.90;5.30;;;;;;;;;;5013292;28;20052;-69
2023/05/22 00:05:06;;;;;;;7.03;5.30;;;;;;;;;;5013483;28;20056;-68
2023/05/22 00:07:31;;;;;;;7.82;5.38;;;;;;;;;;5013244;28;20026;-68
2023/05/22 00:09:57;;;;;;;7.35;4.97;;;;;;;;;;5013361;28;20018;-68
2023/05/22 00:12:23;;;;;;;6.30;5.40;;;;;;;;;;5013006;28;20430;-66
2023/05/22 00:14:48;;;;;;;6.53;5.35;;;;;;;;;;5013051;28;20029;-64
2023/05/22 00:17:15;;;;;;;6.35;5.38;;;;;;;;;;5012845;28;20106;-67
2023/05/22 00:19:41;;;;;;;5.65;5.13;;;;;;;;;;5012927;28;20097;-69
2023/05/22 00:22:07;;;;;;;6.25;5.50;;;;;;;;;;5012824;28;20026;-68
2023/05/22 00:24:33;;;;;;;6.30;5.53;;;;;;;;;;5013032;28;20030;-65
2023/05/22 00:26:59;;;;;;;5.38;4.85;;;;;;;;;;5012693;28;20077;-65
2023/05/22 00:29:25;;;;;;;6.57;5.00;;;;;;;;;;5013140;28;20061;-65
2023/05/22 00:31:51;;;;;;;6.53;5.10;;;;;;;;;;5013012;28;20458;-69
2023/05/22 00:34:16;;;;;;;5.70;5.13;;;;;;;;;;5013112;28;20436;-66
2023/05/22 00:36:41;;;;;;;6.05;5.18;;;;;;;;;;5012742;28;20026;-68
2023/05/22 00:39:08;;;;;;;5.57;4.88;;;;;;;;;;5012770;28;20022;-71
2023/05/22 00:41:34;;;;;;;7.50;5.15;;;;;;;;;;5012917;28;20030;-65
2023/05/22 00:44:00;;;;;;;6.28;5.20;;;;;;;;;;5012679;28;20496;-68
2023/05/22 00:46:25;;;;;;;6.82;5.38;;;;;;;;;;5012613;28;20041;-65
2023/05/22 00:48:51;;;;;;;5.53;4.97;;;;;;;;;;5012925;28;20437;-67
2023/05/22 00:51:20;;;;;;;5.82;5.20;;;;;;;;;;5012542;28;20370;-66
2023/05/22 00:53:49;;;;;;;5.50;4.97;;;;;;;;;;5012659;28;20034;-64
2023/05/22 00:56:16;;;;;;;5.65;4.95;;;;;;;;;;5012788;28;20428;-65
2023/05/22 00:58:42;;;;;;;5.70;5.10;;;;;;;;;;5012903;28;20030;-65
2023/05/22 01:01:10;;;;;;;7.40;4.88;;;;;;;;;;5012722;28;20044;-68
2023/05/22 01:03:41;;;;;;;7.15;5.30;;;;;;;;;;5012721;28;20494;-69
2023/05/22 01:06:06;;;;;;;7.50;5.40;;;;;;;;;;5012839;28;20033;-66
2023/05/22 01:08:32;;;;;;;5.88;5.28;;;;;;;;;;5012410;28;20034;-67
2023/05/22 01:11:09;;;;;;;6.63;5.28;;;;;;;;;;5012287;28;20440;-66
2023/05/22 01:14:02;;;;;;;5.90;4.88;;;;;;;;;;5012387;28;20030;-66
2023/05/22 01:16:45;;;;;;;5.95;4.80;;;;;;;;;;5012947;28;20041;-66
2023/05/22 01:19:35;;;;;;;5.57;4.82;;;;;;;;;;5012335;28;20030;-69
2023/05/22 01:22:20;;;;;;;;;;;;;;;;;;5012770;28;20026;-65
2023/05/22 01:25:27;;;;;;;6.60;5.28;;;;;;;;;;5012051;28;19914;-66
2023/05/22 01:28:07;;;;;;;6.43;5.63;;;;;;;;;;4970890;28;20078;-64
2023/05/22 01:30:54;;;;;;;6.93;5.00;;;;;;;;;;4974534;28;20498;-70
2023/05/22 01:33:24;;;;;;;7.18;5.45;;;;;;;;;;5003650;28;20042;-65
2023/05/22 01:35:54;;;;;;;5.32;4.80;;;;;;;;;;5015759;28;20025;-67
2023/05/22 01:38:20;;;;;;;6.10;4.97;;;;;;;;;;5015731;28;20014;-68
2023/05/22 01:40:47;;;;;;;5.97;5.18;;;;;;;;;;5016016;28;20113;-65
2023/05/22 01:43:13;;;;;;;5.38;4.80;;;;;;;;;;5016042;28;20033;-70
2023/05/22 01:45:39;;;;;;;6.28;5.00;;;;;;;;;;5015648;28;20025;-67
2023/05/22 01:48:05;;;;;;;5.80;5.20;;;;;;;;;;5015571;28;20029;-66
2023/05/22 01:50:31;;;;;;;5.18;4.68;;;;;;;;;;5015629;28;20114;-65
2023/05/22 01:53:18;;;;;;;5.40;4.75;;;;;;;;;;5015827;28;20088;-66
2023/05/22 01:56:08;;;;;;;5.72;5.13;;;;;;;;;;5015513;28;20088;-69
2023/05/22 01:58:37;;;;;;;;;;;;;;;;;;5015887;28;20033;-71
2023/05/22 02:01:03;;;;;;;5.45;4.55;;;;;;;;;;5015676;28;19914;-65
2023/05/22 02:03:34;;;;;;;6.88;5.38;;;;;;;;;;5015596;28;20034;-69
2023/05/22 02:06:04;;;;;;;5.28;4.78;;;;;;;;;;5015302;28;20022;-67
2023/05/22 02:08:30;;;;;;;5.57;4.78;;;;;;;;;;5015185;28;20036;-67
2023/05/22 02:10:58;;;;;;;5.82;4.93;;;;;;;;;;5015248;28;20101;-67
2023/05/22 02:13:24;;;;;;;6.25;5.30;;;;;;;;;;5014992;28;20113;-65
2023/05/22 02:15:50;;;;;;;5.05;4.57;;;;;;;;;;5015481;28;20061;-66
2023/05/22 02:18:16;;;;;;;6.22;5.20;;;;;;;;;;5015016;28;20033;-67
2023/05/22 02:20:42;;;;;;;5.75;4.70;;;;;;;;;;5014952;28;20041;-68
2023/05/22 02:23:07;;;;;;;5.85;5.22;;;;;;;;;;5015230;28;20030;-65
2023/05/22 02:25:33;;;;;;;5.85;5.10;;;;;;;;;;5014685;28;20077;-67
2023/05/22 02:27:59;;;;;;;5.50;4.90;;;;;;;;;;5015012;28;20041;-68
2023/05/22 02:30:24;;;;;;;5.47;4.88;;;;;;;;;;5014839;28;20034;-65
2023/05/22 02:32:50;;;;;;;6.68;4.82;;;;;;;;;;5014700;28;20070;-70
2023/05/22 02:35:16;;;;;;;5.97;4.90;;;;;;;;;;5015081;28;20101;-68
2023/05/22 02:37:42;;;;;;;6.07;5.05;;;;;;;;;;5014632;28;20109;-66
2023/05/22 02:40:08;;;;;;;5.90;4.85;;;;;;;;;;5014402;28;20049;-66
2023/05/22 02:42:34;;;;;;;6.53;4.75;;;;;;;;;;5014490;28;20026;-69
2023/05/22 02:45:00;;;;;;;5.30;4.55;;;;;;;;;;5014549;28;20029;-66
2023/05/22 02:47:26;;;;;;;5.82;5.00;;;;;;;;;;5014274;28;20033;-69
2023/05/22 02:49:51;;;;;;;6.07;5.03;;;;;;;;;;5014736;28;20125;-66
2023/05/22 02:52:17;;;;;;;5.63;5.00;;;;;;;;;;5014373;28;20028;-67
2023/05/22 02:54:43;;;;;;;5.13;4.63;;;;;;;;;;5014399;28;20033;-70
2023/05/22 02:57:08;;;;;;;5.60;4.85;;;;;;;;;;5014309;28;20030;-65
2023/05/22 02:59:35;;;;;;;6.82;5.30;;;;;;;;;;5014211;28;20429;-69
2023/05/22 03:02:01;;;;;;;5.40;4.90;;;;;;;;;;5014155;28;20065;-65
2023/05/22 03:04:28;;;;;;;6.97;5.50;;;;;;;;;;5014434;28;20045;-67
2023/05/22 03:06:54;;;;;;;6.07;4.65;;;;;;;;;;5013892;28;20034;-66
2023/05/22 03:09:20;;;;;;;5.20;4.70;;;;;;;;;;5014078;28;20034;-66
2023/05/22 03:11:48;;;;;;;6.88;5.22;;;;;;;;;;5013916;28;20109;-68
2023/05/22 03:14:13;;;;;;;6.22;4.95;;;;;;;;;;5013911;28;20037;-65
2023/05/22 03:16:40;;;;;;;5.50;4.85;;;;;;;;;;5014144;28;20104;-64
2023/05/22 03:19:10;;;;;;;5.38;4.80;;;;;;;;;;5014139;28;20104;-67
2023/05/22 03:21:37;;;;;;;5.35;4.85;;;;;;;;;;5013780;28;20500;-67
2023/05/22 03:24:03;;;;;;;5.93;4.80;;;;;;;;;;5014116;28;20022;-65
2023/05/22 03:26:28;;;;;;;5.25;4.72;;;;;;;;;;5013488;28;20050;-67
2023/05/22 03:28:55;;;;;;;5.28;4.72;;;;;;;;;;5013754;28;20386;-65
2023/05/22 03:31:21;;;;;;;5.80;5.10;;;;;;;;;;5013608;28;20036;-65
2023/05/22 03:33:47;;;;;;;6.65;5.00;;;;;;;;;;5013932;28;20034;-66
2023/05/22 03:36:12;;;;;;;6.78;4.93;;;;;;;;;;5013530;28;20026;-65
2023/05/22 03:38:38;;;;;;;6.03;4.80;;;;;;;;;;5013518;28;20025;-69
2023/05/22 03:41:03;;;;;;;5.72;4.88;;;;;;;;;;5013513;28;20390;-65
2023/05/22 03:43:29;;;;;;;5.05;4.63;;;;;;;;;;5013736;28;20026;-70
2023/05/22 03:45:54;;;;;;;5.32;4.82;;;;;;;;;;5013304;28;20474;-66
2023/05/22 03:48:20;;;;;;;4.80;4.40;;;;;;;;;;5013611;28;20033;-67
2023/05/22 03:50:46;;;;;;;5.07;4.57;;;;;;;;;;5013315;28;20029;-69
2023/05/22 03:53:11;;;;;;;5.60;4.80;;;;;;;;;;5013115;28;20030;-67
2023/05/22 03:55:36;;;;;;;6.43;4.80;;;;;;;;;;5028396;28;20311;-65
2023/05/22 03:58:02;;;;;;;5.03;4.53;;;;;;;;;;5013216;28;20098;-67
2023/05/22 04:00:28;;;;;;;5.43;4.68;;;;;;;;;;5013463;28;20120;-69
2023/05/22 04:02:57;;;;;;;5.53;4.90;;;;;;;;;;5013433;28;20022;-65
2023/05/22 04:05:22;;;;;;;5.63;4.72;;;;;;;;;;5013300;28;20022;-65
2023/05/22 04:07:48;;;;;;;5.10;4.57;;;;;;;;;;5013318;28;20560;-66
2023/05/22 04:10:14;;;;;;;7.05;4.90;;;;;;;;;;5013281;28;20026;-68
2023/05/22 04:12:39;;;;;;;4.90;4.40;;;;;;;;;;5013246;28;20026;-65
2023/05/22 04:15:06;;;;;;;7.05;5.20;;;;;;;;;;5013217;28;20026;-65
2023/05/22 04:17:34;;;;;;;5.32;4.82;;;;;;;;;;5013015;28;20093;-65
2023/05/22 04:20:00;;;;;;;5.18;4.50;;;;;;;;;;5012842;28;20029;-65
2023/05/22 04:22:26;;;;;;;5.57;4.65;;;;;;;;;;5013175;28;20030;-65
2023/05/22 04:24:52;;;;;;;7.00;5.00;;;;;;;;;;5012552;28;20053;-65
2023/05/22 04:27:21;;;;;;;7.18;4.55;;;;;;;;;;5011620;28;20077;-65
2023/05/22 04:29:49;;;;;;;5.72;4.72;;;;;;;;;;5012765;28;20065;-66
2023/05/22 04:32:17;;;;;;;5.05;4.63;;;;;;;;;;5012863;28;20543;-65
2023/05/22 04:34:45;;;;;;;5.07;4.57;;;;;;;;;;5013017;28;20025;-66
2023/05/22 04:37:13;;;;;;;5.95;4.60;;;;;;;;;;5012716;28;20477;-65
2023/05/22 04:39:40;;;;;;;5.32;4.65;;;;;;;;;;5012989;28;20048;-65
2023/05/22 04:42:06;;;;;;;5.78;4.90;;;;;;;;;;5012709;28;20037;-65
2023/05/22 04:44:33;;;;;;;5.35;4.82;;;;;;;;;;5012701;28;20030;-65
2023/05/22 04:47:02;;;;;;;5.10;4.60;;;;;;;;;;5012880;28;20038;-64
2023/05/22 04:49:28;;;;;;;5.43;4.45;;;;;;;;;;5013104;28;20053;-65
2023/05/22 04:51:56;;;;;;;5.57;5.05;;;;;;;;;;5012585;28;20478;-65
2023/05/22 04:54:22;;;;;;;5.82;4.90;;;;;;;;;;5012702;28;20033;-66
2023/05/22 04:56:48;;;;;;;5.40;4.60;;;;;;;;;;5012432;28;20109;-66
2023/05/22 04:59:15;;;;;;;5.57;4.63;;;;;;;;;;5012662;28;20112;-65
2023/05/22 05:01:44;;;;;;;5.10;4.60;;;;;;;;;;5012709;28;20057;-67
2023/05/22 05:04:10;;;;;;;5.30;4.72;;;;;;;;;;5014194;28;20026;-65
2023/05/22 05:06:36;;;;;;;5.20;4.68;;;;;;;;;;5031504;28;20397;-65
2023/05/22 05:09:03;;;;;;;4.90;4.40;;;;;;;;;;5016251;28;20026;-65
2023/05/22 05:11:29;;;;;;;4.90;4.43;;;;;;;;;;5016245;28;20551;-64
2023/05/22 05:13:54;;;;;;;4.95;4.32;;;;;;;;;;5016129;28;20116;-65
2023/05/22 05:16:20;;;;;;;5.20;4.40;;;;;;;;;;5016200;28;20056;-66
2023/05/22 05:18:46;;;;;;;5.22;4.75;;;;;;;;;;5016026;28;20030;-65
2023/05/22 05:21:11;;;;;;;6.32;4.40;;;;;;;;;;5016131;28;20032;-65
2023/05/22 05:23:37;;;;;;;4.93;4.43;;;;;;;;;;5016049;28;20034;-66
2023/05/22 05:56:18;;;;;;;6.10;4.90;;;;;;;;;;5015674;28;20100;-66
2023/05/22 05:58:44;;;;;;;4.60;4.20;;;;;;;;;;5015963;28;20034;-67
2023/05/22 06:01:10;;;;;;;5.40;4.60;;;;;;;;;;5015382;28;20022;-66
2023/05/22 06:03:36;;;;;;;5.82;4.80;;;;;;;;;;5015654;28;20113;-68
2023/05/22 06:06:02;;;;;;;5.30;4.18;;;;;;;;;;5015559;28;20521;-66
2023/05/22 06:08:27;;;;;;;4.75;4.25;;;;;;;;;;5015456;28;20386;-66
2023/05/22 06:10:53;;;;;;;4.88;4.38;;;;;;;;;;5015354;28;20444;-66
2023/05/22 06:13:18;;;;;;;4.88;4.38;;;;;;;;;;5015498;28;20429;-66
2023/05/22 06:15:44;;;;;;;4.78;4.28;;;;;;;;;;5014769;28;20423;-67
2023/05/22 06:18:10;;;;;;;4.57;4.18;;;;;;;;;;5015061;28;20034;-67
2023/05/22 06:20:36;;;;;;;4.63;4.18;;;;;;;;;;5015039;28;20075;-67
2023/05/22 06:23:01;;;;;;;6.63;4.78;;;;;;;;;;5015196;28;20042;-67
2023/05/22 06:25:28;;;;;;;5.53;4.93;;;;;;;;;;5014954;28;20196;-67
2023/05/22 06:27:54;;;;;;;5.22;4.60;;;;;;;;;;5015054;28;20040;-67
2023/05/22 06:30:19;;;;;;;5.05;4.53;;;;;;;;;;5015000;28;20025;-67
2023/05/22 06:32:45;;;;;;;5.20;4.70;;;;;;;;;;5011155;28;20470;-70
2023/05/22 06:35:11;;;;;;;4.95;4.45;;;;;;;;;;5001604;28;20021;-69
2023/05/22 06:37:37;;;;;;;4.88;4.47;;;;;;;;;;5000385;28;20037;-69
2023/05/22 06:40:05;;;;;;;4.90;4.40;;;;;;;;;;5000507;28;20057;-69
2023/05/22 06:42:31;;;;;;;5.30;4.80;;;;;;;;;;5003728;28;20028;-67
2023/05/22 06:44:57;;;;;;;4.90;4.50;;;;;;;;;;5000574;28;20129;-68
2023/05/22 06:47:22;;;;;;;5.72;4.28;;;;;;;;;;4995295;28;20105;-67
2023/05/22 06:49:48;;;;;;;4.80;4.40;;;;;;;;;;5006831;28;20065;-67
2023/05/22 06:52:13;;;;;;;5.35;4.72;;;;;;;;;;5011826;28;20042;-68
2023/05/22 06:54:41;;;;;;;5.25;4.22;;;;;;;;;;5013878;28;20053;-66
2023/05/22 06:57:07;;;;;;;4.38;3.97;;;;;;;;;;5009697;28;20029;-68
2023/05/22 06:59:33;;;;;;;5.72;4.05;;;;;;;;;;5013541;28;20018;-67
2023/05/22 07:01:58;;;;;;;6.30;4.50;;;;;;;;;;5014429;28;20033;-68
2023/05/22 07:04:24;;;;;;;4.60;4.20;;;;;;;;;;5014094;28;20033;-68
2023/05/22 07:06:50;;;;;;;5.18;4.38;;;;;;;;;;5013986;28;20412;-67
2023/05/22 07:09:18;;;;;;;5.55;4.65;;;;;;;;;;5014230;28;20030;-68
2023/05/22 07:11:45;;;;;;;4.75;4.22;;;;;;;;;;5012300;28;20038;-68
2023/05/22 07:14:13;;;;;;;4.60;4.20;;;;;;;;;;5013404;28;20486;-68
2023/05/22 07:16:40;;;;;;;4.68;4.28;;;;;;;;;;5005640;28;20064;-69
2023/05/22 07:19:07;;;;;;;5.47;4.35;;;;;;;;;;5002802;28;20018;-68
2023/05/22 07:21:34;;;;;;;4.68;4.28;;;;;;;;;;4998913;28;20541;-68
2023/05/22 07:24:07;;;;;;;4.68;4.28;;;;;;;;;;4994445;28;20402;-68
2023/05/22 07:26:36;;;;;;;4.57;4.00;;;;;;;;;;5011898;28;20046;-70
2023/05/22 07:29:02;;;;;;;4.72;4.30;;;;;;;;;;5013248;28;20049;-70
2023/05/22 07:31:30;;;;;;;4.60;4.20;;;;;;;;;;5011668;28;20124;-71
2023/05/22 07:33:56;;;;;;;5.78;4.18;;;;;;;;;;5009655;28;20030;-71
2023/05/22 07:36:21;;;;;;;4.63;4.22;;;;;;;;;;4992535;28;20045;-69
2023/05/22 07:38:47;;;;;;;4.60;4.20;;;;;;;;;;4992318;28;20034;-72
2023/05/22 07:41:13;;;;;;;4.70;4.20;;;;;;;;;;4993328;28;20360;-71
2023/05/22 07:43:38;;;;;;;5.05;4.55;;;;;;;;;;4998638;28;20413;-70
2023/05/22 07:46:08;;;;;;;4.72;4.25;;;;;;;;;;4993364;28;20030;-72
2023/05/22 07:48:33;;;;;;;4.45;4.05;;;;;;;;;;5005901;28;20037;-69
2023/05/22 07:50:59;;;;;;;4.50;4.10;;;;;;;;;;5012255;28;20030;-71
2023/05/22 07:53:25;;;;;;;4.85;4.38;;;;;;;;;;5011902;28;20064;-69
2023/05/22 07:55:50;;;;;;;4.85;4.45;;;;;;;;;;5011063;28;20350;-71
2023/05/22 07:58:16;;;;;;;5.22;4.35;;;;;;;;;;5010639;28;20041;-70
2023/05/22 08:00:41;;;;;;;5.05;4.65;;;;;;;;;;4992826;28;20105;-70
2023/05/22 08:03:07;;;;;;;4.80;4.30;;;;;;;;;;4991970;28;20069;-69
2023/05/22 08:05:32;;;;;;;5.63;4.85;;;;;;;;;;4992322;28;20026;-69
2023/05/22 08:07:58;;;;;;;4.90;4.40;;;;;;;;;;4991777;28;20068;-72
2023/05/22 08:10:23;;;;;;;7.47;4.38;;;;;;;;;;5001009;28;20128;-70
2023/05/22 08:12:49;;;;;;;6.50;4.30;;;;;;;;;;4992211;28;20098;-69
2023/05/22 08:15:15;;;;;;;6.00;4.28;;;;;;;;;;4991991;28;20045;-69
2023/05/22 08:17:40;;;;;;;4.38;3.90;;;;;;;;;;4991724;28;20026;-69
2023/05/22 08:20:07;;;;;;;8.25;4.60;;;;;;;;;;5006328;28;20040;-68
2023/05/22 08:22:33;;;;;;;4.75;4.30;;;;;;;;;;5011237;28;20026;-69
2023/05/22 08:24:59;;;;;;;4.43;4.03;;;;;;;;;;5010423;28;20042;-69
2023/05/22 08:27:24;;;;;;;5.35;4.22;;;;;;;;;;5011223;28;20296;-70
2023/05/22 08:29:50;;;;;;;4.40;4.00;;;;;;;;;;5011325;28;20029;-70
2023/05/22 08:32:16;;;;;;;4.20;3.80;;;;;;;;;;5011160;28;20033;-70
2023/05/22 08:34:42;;;;;;;5.38;3.95;;;;;;;;;;5011564;28;20029;-72
2023/05/22 08:37:08;;;;;;;4.93;4.20;;;;;;;;;;5010947;28;20497;-70
2023/05/22 08:39:33;;;;;;;4.47;4.07;;;;;;;;;;5011348;28;20062;-70
2023/05/22 08:41:59;;;;;;;4.90;4.40;;;;;;;;;;5011255;28;20113;-69
2023/05/22 08:44:25;;;;;;;5.15;4.10;;;;;;;;;;5010942;28;20029;-69
2023/05/22 08:46:52;;;;;;;4.40;4.00;;;;;;;;;;5011217;28;20065;-69
2023/05/22 08:49:21;;;;;;;4.40;4.00;;;;;;;;;;5011062;28;20034;-68
2023/05/22 08:51:51;;;;;;;4.73;4.00;;;;;;;;;;5010869;28;20030;-68
2023/05/22 08:54:20;;;;;;;4.80;4.30;;;;;;;;;;5011143;28;20338;-68
2023/05/22 08:56:48;;;;;;;3.90;3.60;;;;;;;;;;5011216;28;20026;-69
2023/05/22 08:59:14;;;;;;;4.20;3.80;;;;;;;;;;5010789;28;20034;-69
2023/05/22 09:01:40;;;;;;;4.13;3.72;;;;;;;;;;5009193;28;20038;-68
2023/05/22 09:04:06;;;;;;;4.13;3.72;;;;;;;;;;5011057;28;20032;-68
2023/05/22 09:06:31;;;;;;;5.60;3.92;;;;;;;;;;5010935;28;20026;-68
2023/05/22 09:08:58;;;;;;;4.13;3.72;;;;;;;;;;5006927;28;20038;-68
2023/05/22 09:11:25;;;;;;;5.07;4.05;;;;;;;;;;5022416;28;20385;-69
2023/05/22 09:13:51;;;;;;;5.95;3.95;;;;;;;;;;5021535;28;20037;-69
2023/05/22 09:16:17;;;;;;;4.88;4.00;;;;;;;;;;5008237;28;20034;-67
2023/05/22 09:18:43;;;;;;;4.43;4.03;;;;;;;;;;5010231;28;20105;-69
2023/05/22 09:21:12;;;;;;;7.90;4.03;;;;;;;;;;5009036;28;20105;-69
2023/05/22 09:23:37;;;;;;;4.13;3.72;;;;;;;;;;5010529;28;20409;-68
2023/05/22 09:26:03;;;;;;;4.22;3.72;;;;;;;;;;5009728;28;20050;-70
2023/05/22 09:28:34;;;;;;;4.45;4.05;;;;;;;;;;5009761;28;20396;-72
2023/05/22 09:31:00;;;;;;;4.47;4.07;;;;;;;;;;5010343;28;20026;-69
2023/05/22 09:33:26;;;;;;;5.43;3.88;;;;;;;;;;5010496;28;20088;-68
2023/05/22 09:35:52;;;;;;;4.03;3.72;;;;;;;;;;5010407;28;20026;-68
2023/05/22 09:38:18;;;;;;;4.03;3.60;;;;;;;;;;5010416;28;20029;-68
2023/05/22 09:40:44;;;;;;;5.90;3.97;;;;;;;;;;5010418;28;20033;-68
2023/05/22 09:43:10;;;;;;;4.43;4.05;;;;;;;;;;5010686;28;20034;-68
2023/05/22 09:45:38;;;;;;;4.45;4.03;;;;;;;;;;5025670;28;20489;-68
2023/05/22 09:48:08;;;;;;;4.03;3.72;;;;;;;;;;5010287;28;20040;-68
2023/05/22 09:50:35;;;;;;;6.22;4.07;;;;;;;;;;5012698;28;20080;-68
2023/05/22 09:53:03;;;;;;;4.32;3.92;;;;;;;;;;5028938;28;20033;-68
2023/05/22 09:55:29;;;;;;;3.90;3.60;;;;;;;;;;5014162;28;20433;-68
2023/05/22 09:57:55;;;;;;;4.03;3.63;;;;;;;;;;5013806;28;20354;-69
2023/05/22 10:00:22;;;;;;;4.28;3.63;;;;;;;;;;5014166;28;20100;-68
2023/05/22 10:02:50;;;;;;;4.07;3.67;;;;;;;;;;5013917;28;20355;-71
2023/05/22 10:05:22;;;;;;;5.07;3.63;;;;;;;;;;5014071;28;20062;-71
2023/05/22 10:07:50;;;;;;;4.03;3.67;;;;;;;;;;5013800;28;20101;-70
2023/05/22 10:10:25;;;;;;;3.80;3.50;;;;;;;;;;5013629;28;20026;-68
2023/05/22 10:12:55;;;;;;;4.80;3.47;;;;;;;;;;5013836;28;20052;-70
2023/05/22 10:15:21;;;;;;;4.20;3.60;;;;;;;;;;5012673;28;20071;-69
2023/05/22 10:17:48;;;;;;;3.83;3.42;;;;;;;;;;5013398;28;20030;-72
2023/05/22 10:20:15;;;;;;;3.92;3.50;;;;;;;;;;5012114;28;20122;-72
2023/05/22 10:22:41;;;;;;;3.83;3.50;;;;;;;;;;5013289;28;20440;-68
2023/05/22 10:25:08;;;;;;;3.97;3.42;;;;;;;;;;5013084;28;20107;-69
2023/05/22 10:27:33;;;;;;;4.47;3.75;;;;;;;;;;5013428;28;20121;-68
2023/05/22 10:30:20;;;;;;;3.88;3.22;;;;;;;;;;5013256;28;20104;-68
2023/05/22 10:33:03;;;;;;;3.97;3.58;;;;;;;;;;5013177;28;20045;-68
2023/05/22 10:35:41;;;;;;;6.35;3.78;;;;;;;;;;5011750;28;20042;-68
2023/05/22 10:38:25;;;;;;;3.88;3.50;;;;;;;;;;5013048;28;20030;-70
2023/05/22 10:40:51;;;;;;;3.55;3.25;;;;;;;;;;5013171;28;20048;-70
2023/05/22 10:43:17;;;;;;;4.25;3.35;;;;;;;;;;5013160;28;20026;-68
2023/05/22 10:45:45;;;;;;;3.67;3.35;;;;;;;;;;5012772;28;20481;-70
2023/05/22 10:48:11;;;;;;;3.53;3.22;;;;;;;;;;5012806;28;20117;-68
2023/05/22 10:50:38;;;;;;;6.50;3.90;;;;;;;;;;5013133;28;20112;-69
2023/05/22 10:53:25;;;;;;;4.45;3.60;;;;;;;;;;5013053;28;20029;-69
2023/05/22 10:55:55;;;;;;;4.13;3.72;;;;;;;;;;5012908;28;20026;-68
2023/05/22 10:58:33;;;;;;;3.72;3.42;;;;;;;;;;5012903;28;20038;-68
2023/05/22 11:01:13;;;;;;;4.25;3.50;;;;;;;;;;5012833;28;20022;-67
2023/05/22 11:03:57;;;;;;;3.97;3.58;;;;;;;;;;5012879;28;20144;-68
2023/05/22 11:06:29;;;;;;;4.32;3.55;;;;;;;;;;5012380;28;20501;-68
2023/05/22 11:08:56;;;;;;;3.70;3.40;;;;;;;;;;5012735;28;20040;-71
2023/05/22 11:11:26;;;;;;;3.75;3.45;;;;;;;;;;5012676;28;20470;-68
2023/05/22 11:14:00;;;;;;;3.78;3.45;;;;;;;;;;5012696;28;20022;-68
2023/05/22 11:16:30;;;;;;;3.85;3.35;;;;;;;;;;5012453;28;20406;-68
2023/05/22 11:19:04;;;;;;;4.22;3.35;;;;;;;;;;5012317;28;20030;-68
2023/05/22 11:21:30;;;;;;;4.18;3.75;;;;;;;;;;5012337;28;20092;-68
2023/05/22 11:23:59;;;;;;;3.60;3.30;;;;;;;;;;5012510;28;20366;-68
2023/05/22 11:26:26;;;;;;;3.80;3.40;;;;;;;;;;5012482;28;20402;-68
2023/05/22 11:28:52;;;;;;;3.47;3.17;;;;;;;;;;5027138;28;20057;-69
2023/05/22 11:31:18;;;;;;;3.88;3.50;;;;;;;;;;5012103;28;20057;-68
2023/05/22 11:33:46;;;;;;;3.83;3.42;;;;;;;;;;5012042;28;20030;-68
2023/05/22 11:36:12;;;;;;;4.65;3.63;;;;;;;;;;5011907;28;20496;-65
2023/05/22 11:38:40;;;;;;;3.67;3.38;;;;;;;;;;5010798;28;20030;-66
2023/05/22 11:41:08;;;;;;;4.35;3.55;;;;;;;;;;5012068;28;20609;-65
2023/05/22 11:43:35;;;;;;;4.10;3.70;;;;;;;;;;5012082;28;20034;-65
2023/05/22 11:46:11;;;;;;;4.05;3.53;;;;;;;;;;5011668;28;20026;-65
2023/05/22 11:48:40;;;;;;;6.10;3.55;;;;;;;;;;5011476;28;20034;-66
2023/05/22 11:51:06;;;;;;;;;;;;;;;;;;5011918;28;20029;-65
2023/05/22 11:53:33;;;;;;;4.10;3.58;;;;;;;;;;5011616;28;19913;-66
2023/05/22 11:56:05;;;;;;;5.55;4.30;;;;;;;;;;5011644;28;20034;-66
2023/05/22 11:58:32;;;;;;;4.05;3.65;;;;;;;;;;5011563;28;20738;-66
2023/05/22 12:01:04;;;;;;;7.45;3.97;;;;;;;;;;5011632;28;20033;-66
2023/05/22 12:03:31;;;;;;;5.22;3.53;;;;;;;;;;5011467;28;20053;-66
2023/05/22 12:05:57;;;;;;;5.75;3.90;;;;;;;;;;5011847;28;20511;-67
2023/05/22 12:08:24;;;;;;;3.95;3.42;;;;;;;;;;5026375;28;20520;-67
2023/05/22 12:10:51;;;;;;;6.22;3.85;;;;;;;;;;5011420;28;20033;-67
2023/05/22 12:13:27;;;;;;;6.07;3.83;;;;;;;;;;5010936;28;20030;-67
2023/05/22 12:15:56;;;;;;;4.40;3.80;;;;;;;;;;5011444;28;20022;-67
2023/05/22 12:18:21;;;;;;;12.32;3.85;;;;;;;;;;5011201;28;20033;-67
2023/05/22 12:20:53;;;;;;;4.05;3.70;;;;;;;;;;5026189;28;20030;-67
2023/05/22 12:23:25;;;;;;;4.68;3.90;;;;;;;;;;5011143;28;20037;-67
2023/05/22 12:26:02;;;;;;;3.92;3.53;;;;;;;;;;5010886;28;20053;-67
2023/05/22 12:28:31;;;;;;;3.97;3.58;;;;;;;;;;5010574;28;20088;-67
2023/05/22 12:30:56;;;;;;;7.85;3.83;;;;;;;;;;5010961;28;20030;-67
2023/05/22 12:33:29;;;;;;;3.75;3.38;;;;;;;;;;5011212;28;20022;-67
2023/05/22 12:35:58;;;;;;;4.00;3.45;;;;;;;;;;5011273;28;20037;-68
2023/05/22 12:38:29;;;;;;;4.20;3.80;;;;;;;;;;5011343;28;20363;-67
2023/05/22 12:40:55;;;;;;;4.78;4.00;;;;;;;;;;5010941;28;20024;-67
2023/05/22 12:43:22;;;;;;;4.05;3.42;;;;;;;;;;5010927;28;20104;-68
2023/05/22 12:45:48;;;;;;;4.50;3.70;;;;;;;;;;5010911;28;20029;-67
2023/05/22 12:48:15;;;;;;;4.40;4.00;;;;;;;;;;5010921;28;20386;-66
2023/05/22 12:50:41;;;;;;;4.20;3.80;;;;;;;;;;5010886;28;20030;-67
2023/05/22 12:53:06;;;;;;;6.05;3.80;;;;;;;;;;5010812;28;20034;-67
2023/05/22 12:55:33;;;;;;;5.65;3.50;;;;;;;;;;5026011;28;20026;-66
2023/05/22 12:57:58;;;;;;;10.23;3.50;;;;;;;;;;5010782;28;20068;-67
2023/05/22 13:00:24;;;;;;;5.25;3.42;;;;;;;;;;5025954;28;20058;-66
2023/05/22 13:02:50;;;;;;;7.13;3.70;;;;;;;;;;5010534;28;20478;-67
2023/05/22 13:05:16;;;;;;;3.80;3.50;;;;;;;;;;5009373;28;20036;-67
2023/05/22 13:07:42;;;;;;;3.83;3.42;;;;;;;;;;5002467;28;20025;-67
2023/05/22 13:10:07;;;;;;;3.83;3.50;;;;;;;;;;5010735;28;20030;-67
2023/05/22 13:12:33;;;;;;;5.80;3.75;;;;;;;;;;5010549;28;20034;-67
2023/05/22 13:15:02;;;;;;;4.30;3.70;;;;;;;;;;5010490;28;20030;-66
2023/05/22 13:17:27;;;;;;;4.35;3.40;;;;;;;;;;5007830;28;20026;-65
2023/05/22 13:19:54;;;;;;;4.00;3.55;;;;;;;;;;5009108;28;20033;-65
2023/05/22 13:22:20;;;;;;;4.13;3.72;;;;;;;;;;5009013;28;20053;-66
2023/05/22 13:24:45;;;;;;;4.72;3.58;;;;;;;;;;5010243;28;20061;-65
2023/05/22 13:27:11;;;;;;;5.97;3.67;;;;;;;;;;5012174;28;20022;-66
2023/05/22 13:29:36;;;;;;;8.60;3.72;;;;;;;;;;5012825;28;20038;-66
2023/05/22 13:32:03;;;;;;;6.70;3.80;;;;;;;;;;5014045;28;20030;-65
2023/05/22 13:34:29;;;;;;;6.43;3.63;;;;;;;;;;5014113;28;20037;-66
2023/05/22 13:36:55;;;;;;;4.57;3.60;;;;;;;;;;5014161;28;20104;-65
2023/05/22 13:39:21;;;;;;;3.88;3.55;;;;;;;;;;5014317;28;20030;-66
2023/05/22 13:41:46;;;;;;;4.20;3.80;;;;;;;;;;5014211;28;20101;-65
2023/05/22 13:44:12;;;;;;;6.18;3.58;;;;;;;;;;5014105;28;20028;-66
2023/05/22 13:46:37;;;;;;;4.85;3.75;;;;;;;;;;5013814;28;20026;-67
2023/05/22 13:49:03;;;;;;;8.40;3.80;;;;;;;;;;5013545;28;20481;-66
2023/05/22 13:51:28;;;;;;;4.70;3.53;;;;;;;;;;5013720;28;20042;-66
2023/05/22 13:53:54;;;;;;;4.35;3.60;;;;;;;;;;5013694;28;20121;-67
2023/05/22 13:56:21;;;;;;;5.03;3.53;;;;;;;;;;5018679;28;20105;-66
2023/05/22 13:58:47;;;;;;;4.63;3.47;;;;;;;;;;5023471;28;20030;-66
2023/05/22 14:01:12;;;;;;;11.32;3.63;;;;;;;;;;5018304;28;20048;-66
2023/05/22 14:03:38;;;;;;;5.22;3.60;;;;;;;;;;5013451;28;20038;-66
2023/05/22 14:06:04;;;;;;;6.03;3.63;;;;;;;;;;5020901;28;20025;-65
2023/05/22 14:08:29;;;;;;;3.40;3.10;;;;;;;;;;5006360;28;20049;-66
2023/05/22 14:10:55;;;;;;;3.53;3.22;;;;;;;;;;5002895;28;20038;-66
2023/05/22 14:13:20;;;;;;;4.57;3.83;;;;;;;;;;5013284;28;20030;-66
2023/05/22 14:15:46;;;;;;;5.65;3.60;;;;;;;;;;5020939;28;20055;-67
2023/05/22 14:18:12;;;;;;;4.25;3.42;;;;;;;;;;5021605;28;20065;-67
2023/05/22 14:20:38;;;;;;;7.57;3.80;;;;;;;;;;5014477;28;20083;-66
2023/05/22 14:23:04;;;;;;;3.83;3.40;;;;;;;;;;5013162;28;20425;-66
2023/05/22 14:25:29;;;;;;;3.95;3.55;;;;;;;;;;5012997;28;20046;-66
2023/05/22 14:27:55;;;;;;;7.85;3.75;;;;;;;;;;5013372;28;20030;-66
2023/05/22 14:30:20;;;;;;;3.63;3.30;;;;;;;;;;5013522;28;20386;-66
2023/05/22 14:32:46;;;;;;;3.75;3.30;;;;;;;;;;5013085;28;20030;-67
2023/05/22 14:35:11;;;;;;;3.85;3.53;;;;;;;;;;5012965;28;20105;-66
2023/05/22 14:37:37;;;;;;;6.35;3.55;;;;;;;;;;5013304;28;20041;-66
2023/05/22 14:40:03;;;;;;;4.57;3.33;;;;;;;;;;5012967;28;20390;-66
2023/05/22 14:42:29;;;;;;;4.53;3.42;;;;;;;;;;5020259;28;20037;-66
2023/05/22 14:44:55;;;;;;;5.13;3.50;;;;;;;;;;5021009;28;20370;-66
2023/05/22 14:47:20;;;;;;;7.32;3.78;;;;;;;;;;5036440;28;20059;-66
2023/05/22 14:49:46;;;;;;;7.53;3.88;;;;;;;;;;5022509;28;20038;-66
2023/05/22 14:52:12;;;;;;;5.35;3.30;;;;;;;;;;5020240;28;20474;-66
2023/05/22 14:54:38;;;;;;;4.15;3.58;;;;;;;;;;5021934;28;20026;-66
2023/05/22 14:57:03;;;;;;;5.30;3.83;;;;;;;;;;5020565;28;20032;-66
2023/05/22 14:59:29;;;;;;;4.85;3.78;;;;;;;;;;5034377;28;20030;-66
2023/05/22 15:01:55;;;;;;;5.78;3.65;;;;;;;;;;5020262;28;20033;-65
2023/05/22 15:04:21;;;;;;;5.75;4.15;;;;;;;;;;5018991;28;20025;-65
2023/05/22 15:06:47;;;;;;;4.38;3.97;;;;;;;;;;5021507;28;20098;-65
2023/05/22 15:09:12;;;;;;;4.28;3.90;;;;;;;;;;5021909;28;20473;-65
2023/05/22 15:11:39;;;;;;;4.40;3.40;;;;;;;;;;5011501;28;20489;-66
2023/05/22 15:14:05;;;;;;;5.00;4.07;;;;;;;;;;5014573;28;20029;-65